sensor_id;sensor_type;location;lat;lon;timestamp;P1;durP1;ratioP1;P2;durP2;ratioP2
1204;SDS011;592;48.764;9.174;2022-09-09T00:01:49;6.83;;;2.03;;
1204;SDS011;592;48.764;9.174;2022-09-09T00:04:23;5.17;;;1.80;;
1204;SDS011;592;48.764;9.174;2022-09-09T00:06:55;4.50;;;1.57;;
1204;SDS011;592;48.764;9.174;2022-09-09T00:09:30;7.67;;;1.70;;
1204;SDS011;592;48.764;9.174;2022-09-09T00:12:04;4.10;;;1.87;;
1204;SDS011;592;48.764;9.174;2022-09-09T00:14:37;5.43;;;1.50;;
1204;SDS011;592;48.764;9.174;2022-09-09T00:17:11;5.80;;;1.60;;
1204;SDS011;592;48.764;9.174;2022-09-09T00:19:41;6.50;;;2.27;;
1204;SDS011;592;48.764;9.174;2022-09-09T00:22:17;5.83;;;1.60;;
1204;SDS011;592;48.764;9.174;2022-09-09T00:24:46;6.30;;;1.67;;
1204;SDS011;592;48.764;9.174;2022-09-09T00:27:21;3.90;;;1.70;;
1204;SDS011;592;48.764;9.174;2022-09-09T00:29:53;5.50;;;2.10;;
1204;SDS011;592;48.764;9.174;2022-09-09T00:32:27;6.83;;;1.77;;
1204;SDS011;592;48.764;9.174;2022-09-09T00:34:58;3.63;;;1.80;;
1204;SDS011;592;48.764;9.174;2022-09-09T00:37:30;4.43;;;1.60;;
1204;SDS011;592;48.764;9.174;2022-09-09T00:40:01;4.33;;;1.60;;
1204;SDS011;592;48.764;9.174;2022-09-09T00:42:33;5.70;;;1.83;;
1204;SDS011;592;48.764;9.174;2022-09-09T00:45:11;6.53;;;1.80;;
1204;SDS011;592;48.764;9.174;2022-09-09T00:47:56;3.23;;;1.27;;
1204;SDS011;592;48.764;9.174;2022-09-09T00:50:29;4.70;;;1.70;;
1204;SDS011;592;48.764;9.174;2022-09-09T00:53:09;6.07;;;1.57;;
1204;SDS011;592;48.764;9.174;2022-09-09T00:55:47;4.27;;;1.57;;
1204;SDS011;592;48.764;9.174;2022-09-09T00:58:17;6.90;;;1.80;;
1204;SDS011;592;48.764;9.174;2022-09-09T01:00:44;5.20;;;1.90;;
1204;SDS011;592;48.764;9.174;2022-09-09T01:03:21;5.20;;;1.70;;
1204;SDS011;592;48.764;9.174;2022-09-09T01:06:13;3.90;;;1.70;;
1204;SDS011;592;48.764;9.174;2022-09-09T01:08:54;4.10;;;1.53;;
1204;SDS011;592;48.764;9.174;2022-09-09T01:11:33;5.83;;;1.60;;
1204;SDS011;592;48.764;9.174;2022-09-09T01:14:13;9.10;;;1.67;;
1204;SDS011;592;48.764;9.174;2022-09-09T01:16:48;4.13;;;1.70;;
1204;SDS011;592;48.764;9.174;2022-09-09T01:19:20;5.50;;;1.80;;
1204;SDS011;592;48.764;9.174;2022-09-09T01:22:00;4.97;;;2.30;;
1204;SDS011;592;48.764;9.174;2022-09-09T01:24:36;5.40;;;2.07;;
1204;SDS011;592;48.764;9.174;2022-09-09T01:27:11;6.47;;;1.60;;
1204;SDS011;592;48.764;9.174;2022-09-09T01:29:40;4.50;;;1.77;;
1204;SDS011;592;48.764;9.174;2022-09-09T01:35:08;4.30;;;1.60;;
1204;SDS011;592;48.764;9.174;2022-09-09T01:37:40;4.80;;;1.70;;
1204;SDS011;592;48.764;9.174;2022-09-09T01:40:07;5.20;;;2.20;;
1204;SDS011;592;48.764;9.174;2022-09-09T01:42:36;5.40;;;1.60;;
1204;SDS011;592;48.764;9.174;2022-09-09T01:45:03;3.50;;;1.63;;
1204;SDS011;592;48.764;9.174;2022-09-09T01:47:31;5.30;;;1.47;;
1204;SDS011;592;48.764;9.174;2022-09-09T01:49:57;3.90;;;1.77;;
1204;SDS011;592;48.764;9.174;2022-09-09T01:52:25;4.13;;;1.70;;
1204;SDS011;592;48.764;9.174;2022-09-09T01:54:52;4.10;;;1.90;;
1204;SDS011;592;48.764;9.174;2022-09-09T01:57:20;4.60;;;1.60;;
1204;SDS011;592;48.764;9.174;2022-09-09T01:59:56;4.23;;;1.50;;
1204;SDS011;592;48.764;9.174;2022-09-09T02:02:32;3.80;;;1.77;;
1204;SDS011;592;48.764;9.174;2022-09-09T02:05:08;6.03;;;1.70;;
1204;SDS011;592;48.764;9.174;2022-09-09T02:07:47;5.90;;;2.00;;
1204;SDS011;592;48.764;9.174;2022-09-09T02:10:16;4.27;;;1.67;;
1204;SDS011;592;48.764;9.174;2022-09-09T02:12:47;4.43;;;1.70;;
1204;SDS011;592;48.764;9.174;2022-09-09T02:15:23;7.33;;;1.63;;
1204;SDS011;592;48.764;9.174;2022-09-09T02:17:56;4.17;;;1.83;;
1204;SDS011;592;48.764;9.174;2022-09-09T02:20:24;4.17;;;1.60;;
1204;SDS011;592;48.764;9.174;2022-09-09T02:22:52;3.80;;;1.63;;
1204;SDS011;592;48.764;9.174;2022-09-09T02:25:22;8.83;;;2.20;;
1204;SDS011;592;48.764;9.174;2022-09-09T02:27:52;5.23;;;1.90;;
1204;SDS011;592;48.764;9.174;2022-09-09T02:30:18;4.97;;;1.83;;
1204;SDS011;592;48.764;9.174;2022-09-09T02:32:48;4.00;;;1.57;;
1204;SDS011;592;48.764;9.174;2022-09-09T02:35:22;4.10;;;1.70;;
1204;SDS011;592;48.764;9.174;2022-09-09T02:37:51;6.00;;;1.73;;
1204;SDS011;592;48.764;9.174;2022-09-09T02:40:21;4.70;;;1.80;;
1204;SDS011;592;48.764;9.174;2022-09-09T02:42:48;3.90;;;1.60;;
1204;SDS011;592;48.764;9.174;2022-09-09T02:45:16;4.70;;;1.70;;
1204;SDS011;592;48.764;9.174;2022-09-09T02:47:48;5.63;;;1.50;;
1204;SDS011;592;48.764;9.174;2022-09-09T02:50:22;5.50;;;2.00;;
1204;SDS011;592;48.764;9.174;2022-09-09T02:52:55;4.43;;;1.73;;
1204;SDS011;592;48.764;9.174;2022-09-09T02:55:34;5.03;;;2.13;;
1204;SDS011;592;48.764;9.174;2022-09-09T02:58:08;5.83;;;1.70;;
1204;SDS011;592;48.764;9.174;2022-09-09T03:00:37;3.70;;;1.43;;
1204;SDS011;592;48.764;9.174;2022-09-09T03:03:07;4.87;;;1.70;;
1204;SDS011;592;48.764;9.174;2022-09-09T03:05:34;5.00;;;1.60;;
1204;SDS011;592;48.764;9.174;2022-09-09T03:08:01;5.17;;;1.60;;
1204;SDS011;592;48.764;9.174;2022-09-09T03:10:29;6.63;;;1.77;;
1204;SDS011;592;48.764;9.174;2022-09-09T03:12:55;4.57;;;2.00;;
1204;SDS011;592;48.764;9.174;2022-09-09T03:15:22;4.87;;;1.67;;
1204;SDS011;592;48.764;9.174;2022-09-09T03:17:49;4.43;;;1.40;;
1204;SDS011;592;48.764;9.174;2022-09-09T03:20:17;3.70;;;1.30;;
1204;SDS011;592;48.764;9.174;2022-09-09T03:22:44;3.73;;;1.40;;
1204;SDS011;592;48.764;9.174;2022-09-09T03:25:11;3.30;;;1.20;;
1204;SDS011;592;48.764;9.174;2022-09-09T03:27:37;4.93;;;1.50;;
1204;SDS011;592;48.764;9.174;2022-09-09T03:30:05;4.43;;;1.40;;
1204;SDS011;592;48.764;9.174;2022-09-09T03:32:32;5.40;;;1.20;;
1204;SDS011;592;48.764;9.174;2022-09-09T03:34:59;3.10;;;1.20;;
1204;SDS011;592;48.764;9.174;2022-09-09T03:37:27;3.60;;;1.40;;
1204;SDS011;592;48.764;9.174;2022-09-09T03:39:54;4.00;;;1.23;;
1204;SDS011;592;48.764;9.174;2022-09-09T03:42:21;4.83;;;1.37;;
1204;SDS011;592;48.764;9.174;2022-09-09T03:44:48;3.80;;;1.20;;
1204;SDS011;592;48.764;9.174;2022-09-09T03:47:15;3.53;;;1.10;;
1204;SDS011;592;48.764;9.174;2022-09-09T03:49:43;3.73;;;1.40;;
1204;SDS011;592;48.764;9.174;2022-09-09T03:52:10;3.33;;;1.20;;
1204;SDS011;592;48.764;9.174;2022-09-09T03:54:38;7.97;;;1.83;;
1204;SDS011;592;48.764;9.174;2022-09-09T03:57:07;4.93;;;1.57;;
1204;SDS011;592;48.764;9.174;2022-09-09T03:59:34;3.77;;;1.20;;
1204;SDS011;592;48.764;9.174;2022-09-09T04:02:01;5.03;;;1.30;;
1204;SDS011;592;48.764;9.174;2022-09-09T04:04:27;3.53;;;1.33;;
1204;SDS011;592;48.764;9.174;2022-09-09T04:06:54;6.23;;;1.80;;
1204;SDS011;592;48.764;9.174;2022-09-09T04:09:21;3.80;;;1.30;;
1204;SDS011;592;48.764;9.174;2022-09-09T04:11:49;4.83;;;1.40;;
1204;SDS011;592;48.764;9.174;2022-09-09T04:14:16;5.17;;;1.40;;
1204;SDS011;592;48.764;9.174;2022-09-09T04:16:43;3.57;;;1.30;;
1204;SDS011;592;48.764;9.174;2022-09-09T04:19:10;3.57;;;1.40;;
1204;SDS011;592;48.764;9.174;2022-09-09T04:21:38;4.13;;;1.90;;
1204;SDS011;592;48.764;9.174;2022-09-09T04:24:05;7.47;;;1.73;;
1204;SDS011;592;48.764;9.174;2022-09-09T04:26:32;4.23;;;1.70;;
1204;SDS011;592;48.764;9.174;2022-09-09T04:29:01;4.10;;;1.60;;
1204;SDS011;592;48.764;9.174;2022-09-09T04:31:27;4.43;;;1.47;;
1204;SDS011;592;48.764;9.174;2022-09-09T04:33:54;3.30;;;1.50;;
1204;SDS011;592;48.764;9.174;2022-09-09T04:36:21;4.53;;;1.73;;
1204;SDS011;592;48.764;9.174;2022-09-09T04:38:48;3.33;;;1.70;;
1204;SDS011;592;48.764;9.174;2022-09-09T04:41:14;5.10;;;1.90;;
1204;SDS011;592;48.764;9.174;2022-09-09T04:43:42;6.00;;;1.83;;
1204;SDS011;592;48.764;9.174;2022-09-09T04:46:11;6.30;;;1.93;;
1204;SDS011;592;48.764;9.174;2022-09-09T04:48:38;6.10;;;2.40;;
1204;SDS011;592;48.764;9.174;2022-09-09T04:51:05;6.63;;;1.80;;
1204;SDS011;592;48.764;9.174;2022-09-09T04:53:35;4.23;;;1.90;;
1204;SDS011;592;48.764;9.174;2022-09-09T04:56:03;5.80;;;2.00;;
1204;SDS011;592;48.764;9.174;2022-09-09T04:58:32;4.87;;;2.03;;
1204;SDS011;592;48.764;9.174;2022-09-09T05:01:05;5.33;;;2.17;;
1204;SDS011;592;48.764;9.174;2022-09-09T05:03:34;4.03;;;1.97;;
1204;SDS011;592;48.764;9.174;2022-09-09T05:06:05;4.50;;;2.07;;
1204;SDS011;592;48.764;9.174;2022-09-09T05:08:33;4.57;;;1.67;;
1204;SDS011;592;48.764;9.174;2022-09-09T05:11:00;5.40;;;2.40;;
1204;SDS011;592;48.764;9.174;2022-09-09T05:13:27;4.90;;;1.93;;
1204;SDS011;592;48.764;9.174;2022-09-09T05:15:56;6.97;;;1.87;;
1204;SDS011;592;48.764;9.174;2022-09-09T05:18:23;6.50;;;1.80;;
1204;SDS011;592;48.764;9.174;2022-09-09T05:20:51;5.47;;;2.00;;
1204;SDS011;592;48.764;9.174;2022-09-09T05:23:18;5.27;;;1.90;;
1204;SDS011;592;48.764;9.174;2022-09-09T05:25:53;4.20;;;1.90;;
1204;SDS011;592;48.764;9.174;2022-09-09T05:28:21;3.20;;;1.50;;
1204;SDS011;592;48.764;9.174;2022-09-09T05:30:54;3.20;;;1.47;;
1204;SDS011;592;48.764;9.174;2022-09-09T05:33:22;4.27;;;2.00;;
1204;SDS011;592;48.764;9.174;2022-09-09T05:35:55;4.40;;;1.70;;
1204;SDS011;592;48.764;9.174;2022-09-09T05:38:23;7.57;;;2.33;;
1204;SDS011;592;48.764;9.174;2022-09-09T05:40:50;5.63;;;1.97;;
1204;SDS011;592;48.764;9.174;2022-09-09T05:43:17;8.23;;;2.37;;
1204;SDS011;592;48.764;9.174;2022-09-09T05:45:44;5.03;;;1.60;;
1204;SDS011;592;48.764;9.174;2022-09-09T05:48:11;6.33;;;2.13;;
1204;SDS011;592;48.764;9.174;2022-09-09T05:50:38;4.77;;;1.60;;
1204;SDS011;592;48.764;9.174;2022-09-09T05:53:06;5.27;;;2.00;;
1204;SDS011;592;48.764;9.174;2022-09-09T05:55:33;4.90;;;2.00;;
1204;SDS011;592;48.764;9.174;2022-09-09T05:57:59;6.30;;;1.90;;
1204;SDS011;592;48.764;9.174;2022-09-09T06:00:26;6.17;;;2.00;;
1204;SDS011;592;48.764;9.174;2022-09-09T06:02:53;6.17;;;2.03;;
1204;SDS011;592;48.764;9.174;2022-09-09T06:05:19;7.13;;;2.37;;
1204;SDS011;592;48.764;9.174;2022-09-09T06:07:47;5.47;;;1.90;;
1204;SDS011;592;48.764;9.174;2022-09-09T06:10:19;6.20;;;2.03;;
1204;SDS011;592;48.764;9.174;2022-09-09T06:12:45;5.10;;;2.23;;
1204;SDS011;592;48.764;9.174;2022-09-09T06:15:12;6.57;;;2.40;;
1204;SDS011;592;48.764;9.174;2022-09-09T06:17:39;5.33;;;2.50;;
1204;SDS011;592;48.764;9.174;2022-09-09T06:20:07;4.60;;;1.93;;
1204;SDS011;592;48.764;9.174;2022-09-09T06:22:34;6.00;;;2.40;;
1204;SDS011;592;48.764;9.174;2022-09-09T06:25:01;4.10;;;1.80;;
1204;SDS011;592;48.764;9.174;2022-09-09T06:27:29;4.70;;;2.00;;
1204;SDS011;592;48.764;9.174;2022-09-09T06:29:57;5.63;;;2.60;;
1204;SDS011;592;48.764;9.174;2022-09-09T06:32:24;6.03;;;2.20;;
1204;SDS011;592;48.764;9.174;2022-09-09T06:34:51;5.80;;;1.90;;
1204;SDS011;592;48.764;9.174;2022-09-09T06:37:19;5.27;;;1.93;;
1204;SDS011;592;48.764;9.174;2022-09-09T06:39:46;6.63;;;2.53;;
1204;SDS011;592;48.764;9.174;2022-09-09T06:42:13;6.30;;;2.10;;
1204;SDS011;592;48.764;9.174;2022-09-09T06:44:42;5.17;;;2.30;;
1204;SDS011;592;48.764;9.174;2022-09-09T06:47:08;6.43;;;2.00;;
1204;SDS011;592;48.764;9.174;2022-09-09T06:49:36;3.83;;;1.70;;
1204;SDS011;592;48.764;9.174;2022-09-09T06:52:02;6.40;;;2.10;;
1204;SDS011;592;48.764;9.174;2022-09-09T06:54:29;6.63;;;2.07;;
1204;SDS011;592;48.764;9.174;2022-09-09T06:56:56;4.10;;;1.90;;
1204;SDS011;592;48.764;9.174;2022-09-09T06:59:23;4.57;;;2.20;;
1204;SDS011;592;48.764;9.174;2022-09-09T07:01:52;4.20;;;1.80;;
1204;SDS011;592;48.764;9.174;2022-09-09T07:04:19;5.90;;;2.30;;
1204;SDS011;592;48.764;9.174;2022-09-09T07:06:46;4.53;;;1.60;;
1204;SDS011;592;48.764;9.174;2022-09-09T07:09:13;8.07;;;2.80;;
1204;SDS011;592;48.764;9.174;2022-09-09T07:11:41;5.17;;;1.90;;
1204;SDS011;592;48.764;9.174;2022-09-09T07:14:09;3.30;;;1.57;;
1204;SDS011;592;48.764;9.174;2022-09-09T07:16:39;4.60;;;1.90;;
1204;SDS011;592;48.764;9.174;2022-09-09T07:19:08;8.20;;;2.10;;
1204;SDS011;592;48.764;9.174;2022-09-09T07:21:35;5.40;;;2.10;;
1204;SDS011;592;48.764;9.174;2022-09-09T07:24:02;6.77;;;2.20;;
1204;SDS011;592;48.764;9.174;2022-09-09T07:26:32;7.30;;;1.50;;
1204;SDS011;592;48.764;9.174;2022-09-09T07:29:00;6.00;;;1.93;;
1204;SDS011;592;48.764;9.174;2022-09-09T07:31:27;5.57;;;1.90;;
1204;SDS011;592;48.764;9.174;2022-09-09T07:33:56;5.40;;;1.70;;
1204;SDS011;592;48.764;9.174;2022-09-09T07:36:26;5.80;;;2.60;;
1204;SDS011;592;48.764;9.174;2022-09-09T07:38:54;5.13;;;1.93;;
1204;SDS011;592;48.764;9.174;2022-09-09T07:41:23;4.17;;;1.90;;
1204;SDS011;592;48.764;9.174;2022-09-09T07:43:52;4.77;;;2.00;;
1204;SDS011;592;48.764;9.174;2022-09-09T07:46:20;7.13;;;2.00;;
1204;SDS011;592;48.764;9.174;2022-09-09T07:48:50;5.43;;;2.03;;
1204;SDS011;592;48.764;9.174;2022-09-09T07:51:18;4.33;;;1.87;;
1204;SDS011;592;48.764;9.174;2022-09-09T07:53:51;6.37;;;2.43;;
1204;SDS011;592;48.764;9.174;2022-09-09T07:56:19;5.67;;;1.90;;
1204;SDS011;592;48.764;9.174;2022-09-09T07:58:48;6.10;;;1.70;;
1204;SDS011;592;48.764;9.174;2022-09-09T08:01:16;5.40;;;2.10;;
1204;SDS011;592;48.764;9.174;2022-09-09T08:03:44;4.67;;;1.50;;
1204;SDS011;592;48.764;9.174;2022-09-09T08:06:12;5.40;;;2.07;;
1204;SDS011;592;48.764;9.174;2022-09-09T08:08:40;5.10;;;1.70;;
1204;SDS011;592;48.764;9.174;2022-09-09T08:11:11;3.90;;;1.60;;
1204;SDS011;592;48.764;9.174;2022-09-09T08:13:39;5.40;;;1.70;;
1204;SDS011;592;48.764;9.174;2022-09-09T08:16:07;4.57;;;1.70;;
1204;SDS011;592;48.764;9.174;2022-09-09T08:18:35;4.63;;;1.90;;
1204;SDS011;592;48.764;9.174;2022-09-09T08:21:09;4.50;;;1.53;;
1204;SDS011;592;48.764;9.174;2022-09-09T08:23:38;5.13;;;1.87;;
1204;SDS011;592;48.764;9.174;2022-09-09T08:26:06;6.20;;;1.90;;
1204;SDS011;592;48.764;9.174;2022-09-09T08:28:37;5.27;;;1.90;;
1204;SDS011;592;48.764;9.174;2022-09-09T08:31:05;5.17;;;1.80;;
1204;SDS011;592;48.764;9.174;2022-09-09T08:33:36;5.10;;;1.60;;
1204;SDS011;592;48.764;9.174;2022-09-09T08:36:04;5.20;;;1.77;;
1204;SDS011;592;48.764;9.174;2022-09-09T08:38:32;6.10;;;1.73;;
1204;SDS011;592;48.764;9.174;2022-09-09T08:41:03;8.50;;;2.20;;
1204;SDS011;592;48.764;9.174;2022-09-09T08:43:44;5.57;;;1.87;;
1204;SDS011;592;48.764;9.174;2022-09-09T08:46:14;7.30;;;1.97;;
1204;SDS011;592;48.764;9.174;2022-09-09T08:48:48;4.43;;;1.73;;
1204;SDS011;592;48.764;9.174;2022-09-09T08:51:23;7.83;;;3.13;;
1204;SDS011;592;48.764;9.174;2022-09-09T08:53:53;6.00;;;1.67;;
1204;SDS011;592;48.764;9.174;2022-09-09T08:56:21;4.40;;;1.47;;
1204;SDS011;592;48.764;9.174;2022-09-09T08:58:51;4.37;;;1.60;;
1204;SDS011;592;48.764;9.174;2022-09-09T09:01:23;6.40;;;1.70;;
1204;SDS011;592;48.764;9.174;2022-09-09T09:04:00;4.87;;;1.70;;
1204;SDS011;592;48.764;9.174;2022-09-09T09:06:37;6.27;;;1.80;;
1204;SDS011;592;48.764;9.174;2022-09-09T09:09:14;6.67;;;1.80;;
1204;SDS011;592;48.764;9.174;2022-09-09T09:11:47;7.47;;;1.70;;
1204;SDS011;592;48.764;9.174;2022-09-09T09:14:18;5.03;;;1.43;;
1204;SDS011;592;48.764;9.174;2022-09-09T09:16:48;4.77;;;1.40;;
1204;SDS011;592;48.764;9.174;2022-09-09T09:19:18;4.57;;;1.60;;
1204;SDS011;592;48.764;9.174;2022-09-09T09:21:48;4.70;;;1.80;;
1204;SDS011;592;48.764;9.174;2022-09-09T09:24:19;6.30;;;1.70;;
1204;SDS011;592;48.764;9.174;2022-09-09T09:26:48;5.10;;;1.50;;
1204;SDS011;592;48.764;9.174;2022-09-09T09:29:15;5.63;;;1.53;;
1204;SDS011;592;48.764;9.174;2022-09-09T09:31:47;7.63;;;1.53;;
1204;SDS011;592;48.764;9.174;2022-09-09T09:34:20;5.87;;;1.80;;
1204;SDS011;592;48.764;9.174;2022-09-09T09:36:52;3.70;;;1.40;;
1204;SDS011;592;48.764;9.174;2022-09-09T09:39:25;4.57;;;1.40;;
1204;SDS011;592;48.764;9.174;2022-09-09T09:41:52;4.60;;;1.30;;
1204;SDS011;592;48.764;9.174;2022-09-09T09:44:25;3.37;;;1.17;;
1204;SDS011;592;48.764;9.174;2022-09-09T09:46:52;4.80;;;2.90;;
1204;SDS011;592;48.764;9.174;2022-09-09T09:49:31;4.70;;;1.50;;
1204;SDS011;592;48.764;9.174;2022-09-09T09:51:59;3.40;;;1.20;;
1204;SDS011;592;48.764;9.174;2022-09-09T09:54:27;6.47;;;1.43;;
1204;SDS011;592;48.764;9.174;2022-09-09T09:56:56;6.10;;;1.47;;
1204;SDS011;592;48.764;9.174;2022-09-09T09:59:35;4.23;;;1.40;;
1204;SDS011;592;48.764;9.174;2022-09-09T10:02:14;3.93;;;1.30;;
1204;SDS011;592;48.764;9.174;2022-09-09T10:04:42;4.53;;;1.90;;
1204;SDS011;592;48.764;9.174;2022-09-09T10:07:10;3.60;;;1.23;;
1204;SDS011;592;48.764;9.174;2022-09-09T10:09:37;4.03;;;1.67;;
1204;SDS011;592;48.764;9.174;2022-09-09T10:12:06;4.77;;;1.67;;
1204;SDS011;592;48.764;9.174;2022-09-09T10:14:45;4.00;;;1.63;;
1204;SDS011;592;48.764;9.174;2022-09-09T10:17:19;5.23;;;1.73;;
1204;SDS011;592;48.764;9.174;2022-09-09T10:19:55;5.90;;;1.90;;
1204;SDS011;592;48.764;9.174;2022-09-09T10:22:43;8.90;;;2.30;;
1204;SDS011;592;48.764;9.174;2022-09-09T10:25:25;6.13;;;2.77;;
1204;SDS011;592;48.764;9.174;2022-09-09T10:28:08;6.43;;;1.90;;
1204;SDS011;592;48.764;9.174;2022-09-09T10:30:51;7.63;;;2.23;;
1204;SDS011;592;48.764;9.174;2022-09-09T10:33:25;6.73;;;1.83;;
1204;SDS011;592;48.764;9.174;2022-09-09T10:36:01;5.97;;;1.80;;
1204;SDS011;592;48.764;9.174;2022-09-09T10:38:37;6.50;;;2.20;;
1204;SDS011;592;48.764;9.174;2022-09-09T10:41:13;7.38;;;2.40;;
1204;SDS011;592;48.764;9.174;2022-09-09T10:43:47;8.30;;;1.97;;
1204;SDS011;592;48.764;9.174;2022-09-09T10:46:37;7.70;;;1.97;;
1204;SDS011;592;48.764;9.174;2022-09-09T10:49:17;4.53;;;1.70;;
1204;SDS011;592;48.764;9.174;2022-09-09T10:51:56;4.87;;;2.03;;
1204;SDS011;592;48.764;9.174;2022-09-09T10:54:36;5.87;;;1.90;;
1204;SDS011;592;48.764;9.174;2022-09-09T10:57:17;4.57;;;1.90;;
1204;SDS011;592;48.764;9.174;2022-09-09T10:59:54;4.07;;;1.90;;
1204;SDS011;592;48.764;9.174;2022-09-09T11:02:26;4.67;;;2.00;;
1204;SDS011;592;48.764;9.174;2022-09-09T11:04:55;5.67;;;2.17;;
1204;SDS011;592;48.764;9.174;2022-09-09T11:07:28;6.83;;;2.00;;
1204;SDS011;592;48.764;9.174;2022-09-09T11:10:04;6.20;;;2.30;;
1204;SDS011;592;48.764;9.174;2022-09-09T11:12:40;5.30;;;1.70;;
1204;SDS011;592;48.764;9.174;2022-09-09T11:15:14;4.10;;;1.80;;
1204;SDS011;592;48.764;9.174;2022-09-09T11:17:48;7.23;;;2.00;;
1204;SDS011;592;48.764;9.174;2022-09-09T11:20:19;4.40;;;1.80;;
1204;SDS011;592;48.764;9.174;2022-09-09T11:22:48;4.67;;;1.73;;
1204;SDS011;592;48.764;9.174;2022-09-09T11:25:19;16.23;;;1.80;;
1204;SDS011;592;48.764;9.174;2022-09-09T11:28:00;6.83;;;1.83;;
1204;SDS011;592;48.764;9.174;2022-09-09T11:30:38;13.00;;;2.20;;
1204;SDS011;592;48.764;9.174;2022-09-09T11:33:24;4.53;;;1.43;;
1204;SDS011;592;48.764;9.174;2022-09-09T11:36:03;7.53;;;1.30;;
1204;SDS011;592;48.764;9.174;2022-09-09T11:38:44;6.60;;;1.83;;
1204;SDS011;592;48.764;9.174;2022-09-09T11:41:11;6.47;;;1.60;;
1204;SDS011;592;48.764;9.174;2022-09-09T11:43:41;5.90;;;1.60;;
1204;SDS011;592;48.764;9.174;2022-09-09T11:46:09;4.53;;;1.07;;
1204;SDS011;592;48.764;9.174;2022-09-09T11:48:40;4.60;;;1.20;;
1204;SDS011;592;48.764;9.174;2022-09-09T11:51:09;4.33;;;1.00;;
1204;SDS011;592;48.764;9.174;2022-09-09T11:53:47;3.67;;;1.00;;
1204;SDS011;592;48.764;9.174;2022-09-09T11:56:23;3.87;;;0.97;;
1204;SDS011;592;48.764;9.174;2022-09-09T11:58:56;3.50;;;1.03;;
1204;SDS011;592;48.764;9.174;2022-09-09T12:04:16;3.87;;;1.10;;
1204;SDS011;592;48.764;9.174;2022-09-09T12:06:54;2.97;;;0.80;;
1204;SDS011;592;48.764;9.174;2022-09-09T12:09:28;4.70;;;1.10;;
1204;SDS011;592;48.764;9.174;2022-09-09T12:12:06;3.40;;;0.80;;
1204;SDS011;592;48.764;9.174;2022-09-09T12:14:54;2.87;;;0.80;;
1204;SDS011;592;48.764;9.174;2022-09-09T12:17:24;3.33;;;1.10;;
1204;SDS011;592;48.764;9.174;2022-09-09T12:20:00;2.70;;;0.80;;
1204;SDS011;592;48.764;9.174;2022-09-09T12:22:39;2.93;;;0.77;;
1204;SDS011;592;48.764;9.174;2022-09-09T12:25:18;3.70;;;1.10;;
1204;SDS011;592;48.764;9.174;2022-09-09T12:27:54;3.63;;;1.00;;
1204;SDS011;592;48.764;9.174;2022-09-09T12:30:31;4.83;;;1.30;;
1204;SDS011;592;48.764;9.174;2022-09-09T12:33:07;3.53;;;0.97;;
1204;SDS011;592;48.764;9.174;2022-09-09T12:35:38;3.70;;;1.17;;
1204;SDS011;592;48.764;9.174;2022-09-09T12:38:06;3.20;;;0.90;;
1204;SDS011;592;48.764;9.174;2022-09-09T12:40:39;3.10;;;0.90;;
1204;SDS011;592;48.764;9.174;2022-09-09T12:43:16;4.27;;;1.13;;
1204;SDS011;592;48.764;9.174;2022-09-09T12:45:44;6.23;;;1.10;;
1204;SDS011;592;48.764;9.174;2022-09-09T12:48:11;5.70;;;1.23;;
1204;SDS011;592;48.764;9.174;2022-09-09T12:50:44;4.57;;;1.00;;
1204;SDS011;592;48.764;9.174;2022-09-09T12:53:15;5.00;;;1.10;;
1204;SDS011;592;48.764;9.174;2022-09-09T12:55:49;5.10;;;1.03;;
1204;SDS011;592;48.764;9.174;2022-09-09T12:58:18;3.67;;;1.10;;
1204;SDS011;592;48.764;9.174;2022-09-09T13:00:48;4.00;;;1.20;;
1204;SDS011;592;48.764;9.174;2022-09-09T13:03:17;4.93;;;1.00;;
1204;SDS011;592;48.764;9.174;2022-09-09T13:05:47;5.10;;;1.00;;
1204;SDS011;592;48.764;9.174;2022-09-09T13:08:15;3.63;;;1.00;;
1204;SDS011;592;48.764;9.174;2022-09-09T13:10:46;3.20;;;1.10;;
1204;SDS011;592;48.764;9.174;2022-09-09T13:13:14;7.17;;;1.17;;
1204;SDS011;592;48.764;9.174;2022-09-09T13:15:48;4.27;;;1.27;;
1204;SDS011;592;48.764;9.174;2022-09-09T13:18:16;5.10;;;1.10;;
1204;SDS011;592;48.764;9.174;2022-09-09T13:20:49;4.20;;;1.10;;
1204;SDS011;592;48.764;9.174;2022-09-09T13:23:17;4.07;;;1.23;;
1204;SDS011;592;48.764;9.174;2022-09-09T13:25:52;3.50;;;1.37;;
1204;SDS011;592;48.764;9.174;2022-09-09T13:28:21;4.77;;;1.00;;
1204;SDS011;592;48.764;9.174;2022-09-09T13:30:57;5.40;;;1.20;;
1204;SDS011;592;48.764;9.174;2022-09-09T13:33:31;4.13;;;1.20;;
1204;SDS011;592;48.764;9.174;2022-09-09T13:36:02;3.00;;;1.13;;
1204;SDS011;592;48.764;9.174;2022-09-09T13:38:31;4.20;;;1.20;;
1204;SDS011;592;48.764;9.174;2022-09-09T13:41:02;6.50;;;1.10;;
1204;SDS011;592;48.764;9.174;2022-09-09T13:43:31;3.07;;;1.23;;
1204;SDS011;592;48.764;9.174;2022-09-09T13:46:02;4.03;;;1.10;;
1204;SDS011;592;48.764;9.174;2022-09-09T13:48:30;3.20;;;1.10;;
1204;SDS011;592;48.764;9.174;2022-09-09T13:50:58;2.70;;;0.80;;
1204;SDS011;592;48.764;9.174;2022-09-09T13:53:29;3.77;;;0.90;;
1204;SDS011;592;48.764;9.174;2022-09-09T13:55:56;2.80;;;1.00;;
1204;SDS011;592;48.764;9.174;2022-09-09T13:58:24;4.57;;;1.20;;
1204;SDS011;592;48.764;9.174;2022-09-09T14:00:51;4.80;;;0.90;;
1204;SDS011;592;48.764;9.174;2022-09-09T14:03:19;3.30;;;1.20;;
1204;SDS011;592;48.764;9.174;2022-09-09T14:05:46;3.57;;;1.10;;
1204;SDS011;592;48.764;9.174;2022-09-09T14:08:19;5.97;;;1.30;;
1204;SDS011;592;48.764;9.174;2022-09-09T14:10:48;6.20;;;1.13;;
1204;SDS011;592;48.764;9.174;2022-09-09T14:13:15;5.23;;;1.10;;
1204;SDS011;592;48.764;9.174;2022-09-09T14:15:42;4.23;;;1.20;;
1204;SDS011;592;48.764;9.174;2022-09-09T14:18:09;4.70;;;1.30;;
1204;SDS011;592;48.764;9.174;2022-09-09T14:20:38;3.60;;;1.27;;
1204;SDS011;592;48.764;9.174;2022-09-09T14:23:05;5.80;;;1.03;;
1204;SDS011;592;48.764;9.174;2022-09-09T14:25:33;5.33;;;1.23;;
1204;SDS011;592;48.764;9.174;2022-09-09T14:27:59;5.70;;;1.30;;
1204;SDS011;592;48.764;9.174;2022-09-09T14:30:27;4.80;;;1.40;;
1204;SDS011;592;48.764;9.174;2022-09-09T14:32:54;4.07;;;1.20;;
1204;SDS011;592;48.764;9.174;2022-09-09T14:35:20;4.20;;;1.20;;
1204;SDS011;592;48.764;9.174;2022-09-09T14:37:47;3.37;;;1.00;;
1204;SDS011;592;48.764;9.174;2022-09-09T14:40:14;4.40;;;1.10;;
1204;SDS011;592;48.764;9.174;2022-09-09T14:42:43;4.70;;;1.10;;
1204;SDS011;592;48.764;9.174;2022-09-09T14:45:10;3.20;;;1.10;;
1204;SDS011;592;48.764;9.174;2022-09-09T14:47:37;3.90;;;1.00;;
1204;SDS011;592;48.764;9.174;2022-09-09T14:50:04;3.80;;;1.00;;
1204;SDS011;592;48.764;9.174;2022-09-09T14:52:33;3.00;;;0.83;;
1204;SDS011;592;48.764;9.174;2022-09-09T14:54:59;4.13;;;1.00;;
1204;SDS011;592;48.764;9.174;2022-09-09T14:57:26;2.87;;;0.90;;
1204;SDS011;592;48.764;9.174;2022-09-09T14:59:54;3.67;;;1.17;;
1204;SDS011;592;48.764;9.174;2022-09-09T15:02:21;4.20;;;1.50;;
1204;SDS011;592;48.764;9.174;2022-09-09T15:04:48;3.43;;;1.00;;
1204;SDS011;592;48.764;9.174;2022-09-09T15:07:16;4.10;;;1.03;;
1204;SDS011;592;48.764;9.174;2022-09-09T15:09:44;3.87;;;0.90;;
1204;SDS011;592;48.764;9.174;2022-09-09T15:12:12;4.53;;;1.10;;
1204;SDS011;592;48.764;9.174;2022-09-09T15:14:40;5.17;;;1.33;;
1204;SDS011;592;48.764;9.174;2022-09-09T15:17:09;4.83;;;1.30;;
1204;SDS011;592;48.764;9.174;2022-09-09T15:19:35;3.57;;;0.97;;
1204;SDS011;592;48.764;9.174;2022-09-09T15:22:02;5.07;;;0.97;;
1204;SDS011;592;48.764;9.174;2022-09-09T15:24:30;2.97;;;0.80;;
1204;SDS011;592;48.764;9.174;2022-09-09T15:26:57;3.63;;;1.10;;
1204;SDS011;592;48.764;9.174;2022-09-09T15:29:24;4.00;;;1.30;;
1204;SDS011;592;48.764;9.174;2022-09-09T15:31:51;5.47;;;1.00;;
1204;SDS011;592;48.764;9.174;2022-09-09T15:34:21;4.70;;;1.27;;
1204;SDS011;592;48.764;9.174;2022-09-09T15:36:48;4.27;;;1.00;;
1204;SDS011;592;48.764;9.174;2022-09-09T15:39:15;4.07;;;1.13;;
1204;SDS011;592;48.764;9.174;2022-09-09T15:41:43;8.60;;;1.37;;
1204;SDS011;592;48.764;9.174;2022-09-09T15:44:11;3.77;;;1.30;;
1204;SDS011;592;48.764;9.174;2022-09-09T15:46:39;4.80;;;1.30;;
1204;SDS011;592;48.764;9.174;2022-09-09T15:49:08;6.83;;;1.20;;
1204;SDS011;592;48.764;9.174;2022-09-09T15:51:38;3.20;;;1.07;;
1204;SDS011;592;48.764;9.174;2022-09-09T15:54:06;3.40;;;1.20;;
1204;SDS011;592;48.764;9.174;2022-09-09T15:56:33;3.80;;;1.20;;